createdAt,value
2023-04-23T00:01:17.856Z,1.35
2023-04-23T00:03:45.488Z,1.60
2023-04-23T00:06:13.078Z,1.23
2023-04-23T00:08:41.280Z,1.35
2023-04-23T00:11:09.436Z,1.30
2023-04-23T00:13:36.994Z,1.70
2023-04-23T00:16:04.291Z,1.75
2023-04-23T00:18:31.155Z,1.08
2023-04-23T00:20:58.122Z,1.75
2023-04-23T00:23:25.294Z,1.27
2023-04-23T00:25:52.057Z,1.48
2023-04-23T00:28:21.520Z,1.38
2023-04-23T00:30:49.041Z,1.55
2023-04-23T00:33:16.051Z,1.67
2023-04-23T00:35:42.798Z,1.85
2023-04-23T00:38:09.646Z,1.50
2023-04-23T00:40:36.496Z,1.35
2023-04-23T00:43:07.268Z,1.10
2023-04-23T00:45:34.340Z,1.83
2023-04-23T00:48:02.906Z,1.45
2023-04-23T00:50:29.750Z,1.83
2023-04-23T00:52:56.684Z,1.70
2023-04-23T00:55:23.535Z,1.55
2023-04-23T00:57:50.990Z,1.60
2023-04-23T01:00:18.886Z,1.95
2023-04-23T01:02:47.554Z,1.55
2023-04-23T01:05:16.038Z,1.50
2023-04-23T01:07:44.607Z,1.90
2023-04-23T01:10:12.777Z,1.90
2023-04-23T01:12:40.014Z,1.50
2023-04-23T01:15:07.927Z,1.60
2023-04-23T01:17:34.816Z,2.08
2023-04-23T01:20:01.577Z,2.42
2023-04-23T01:22:28.645Z,2.22
2023-04-23T01:24:55.811Z,2.53
2023-04-23T01:27:24.892Z,2.13
2023-04-23T01:29:52.101Z,1.98
2023-04-23T01:32:19.428Z,2.20
2023-04-23T01:34:48.138Z,1.70
2023-04-23T01:37:17.395Z,1.90
2023-04-23T01:39:44.482Z,2.15
2023-04-23T01:42:11.553Z,1.95
2023-04-23T01:44:38.647Z,2.10
2023-04-23T01:47:07.243Z,1.60
2023-04-23T01:49:34.334Z,2.42
2023-04-23T01:52:04.215Z,2.15
2023-04-23T01:54:30.942Z,2.50
2023-04-23T01:56:59.008Z,2.33
2023-04-23T01:59:26.577Z,2.00
2023-04-23T02:01:53.639Z,2.50
2023-04-23T02:04:22.368Z,2.28
2023-04-23T02:06:52.125Z,2.72
2023-04-23T02:09:18.856Z,2.25
2023-04-23T02:11:46.842Z,2.40
2023-04-23T02:14:13.866Z,2.67
2023-04-23T02:16:40.544Z,2.80
2023-04-23T02:19:08.235Z,2.88
2023-04-23T02:21:34.926Z,2.53
2023-04-23T02:24:01.756Z,3.20
2023-04-23T02:26:29.219Z,2.45
2023-04-23T02:28:56.062Z,3.45
2023-04-23T02:31:23.181Z,3.45
2023-04-23T02:33:50.156Z,2.67
2023-04-23T02:36:17.234Z,2.90
2023-04-23T02:38:45.644Z,2.95
2023-04-23T02:41:12.434Z,2.90
2023-04-23T02:43:39.199Z,2.85
2023-04-23T02:46:09.649Z,2.83
2023-04-23T02:48:41.453Z,2.83
2023-04-23T02:51:11.117Z,3.65
2023-04-23T02:53:37.933Z,3.08
2023-04-23T02:56:04.935Z,4.03
2023-04-23T02:58:32.041Z,2.40
2023-04-23T03:01:00.875Z,3.80
2023-04-23T03:03:32.205Z,3.25
2023-04-23T03:06:02.215Z,3.28
2023-04-23T03:08:29.115Z,3.35
2023-04-23T03:10:56.046Z,2.58
2023-04-23T03:13:23.145Z,2.78
2023-04-23T03:15:50.736Z,2.63
2023-04-23T03:18:18.208Z,3.60
2023-04-23T03:20:48.125Z,3.40
2023-04-23T03:23:15.480Z,2.80
2023-04-23T03:25:42.504Z,2.97
2023-04-23T03:28:09.226Z,2.53
2023-04-23T03:30:36.128Z,2.53
2023-04-23T03:33:03.390Z,2.78
2023-04-23T03:35:30.730Z,3.35
2023-04-23T03:38:00.807Z,2.63
2023-04-23T03:40:27.602Z,2.83
2023-04-23T03:42:58.397Z,2.90
2023-04-23T03:45:46.158Z,2.25
2023-04-23T03:48:15.081Z,2.33
2023-04-23T03:50:42.953Z,1.83
2023-04-23T03:53:23.132Z,2.15
2023-04-23T03:56:08.393Z,2.42
2023-04-23T03:58:45.175Z,2.60
2023-04-23T04:01:11.816Z,3.05
2023-04-23T04:03:38.735Z,2.00
2023-04-23T04:06:05.707Z,2.58
2023-04-23T04:08:32.412Z,2.88
2023-04-23T04:11:00.412Z,2.60
2023-04-23T04:13:27.366Z,2.50
2023-04-23T04:15:54.108Z,2.88
2023-04-23T04:18:21.317Z,2.58
2023-04-23T04:20:48.132Z,2.60
2023-04-23T04:23:16.285Z,3.15
2023-04-23T04:25:43.098Z,3.50
2023-04-23T04:28:11.854Z,2.63
2023-04-23T04:30:39.534Z,2.50
2023-04-23T04:33:06.326Z,2.67
2023-04-23T04:35:33.022Z,2.97
2023-04-23T04:37:59.956Z,3.00
2023-04-23T04:40:28.568Z,3.13
2023-04-23T04:42:55.278Z,3.33
2023-04-23T04:45:22.060Z,3.10
2023-04-23T04:47:48.775Z,3.20
2023-04-23T04:50:15.655Z,2.97
2023-04-23T04:52:42.683Z,3.40
2023-04-23T04:55:09.839Z,2.70
2023-04-23T04:57:36.648Z,3.08
2023-04-23T05:00:23.032Z,3.10
2023-04-23T05:02:53.244Z,3.20
2023-04-23T05:05:21.932Z,4.03
2023-04-23T05:07:48.830Z,3.10
2023-04-23T05:10:16.452Z,3.38
2023-04-23T05:12:43.814Z,3.03
2023-04-23T05:15:13.409Z,3.50
2023-04-23T05:17:41.600Z,2.58
2023-04-23T05:20:10.971Z,2.95
2023-04-23T05:22:38.796Z,3.38
2023-04-23T05:25:07.243Z,3.65
2023-04-23T05:27:34.754Z,3.97
2023-04-23T05:30:08.029Z,2.92
2023-04-23T05:32:35.632Z,3.25
2023-04-23T05:35:03.807Z,3.35
2023-04-23T05:37:31.033Z,3.72
2023-04-23T05:39:58.390Z,3.25
2023-04-23T05:42:25.499Z,3.35
2023-04-23T05:44:52.174Z,2.90
2023-04-23T05:47:19.000Z,3.15
2023-04-23T05:49:45.724Z,3.15
2023-04-23T05:52:12.563Z,2.90
2023-04-23T05:54:39.517Z,2.47
2023-04-23T05:57:06.686Z,2.30
2023-04-23T05:59:33.906Z,2.33
2023-04-23T06:02:00.810Z,2.28
2023-04-23T06:04:27.784Z,2.00
2023-04-23T06:06:54.769Z,2.30
2023-04-23T06:09:21.549Z,2.33
2023-04-23T06:11:50.550Z,2.25
2023-04-23T06:14:17.315Z,2.45
2023-04-23T06:16:44.054Z,2.85
2023-04-23T06:19:11.872Z,2.50
2023-04-23T06:21:39.190Z,2.13
2023-04-23T06:24:07.485Z,2.95
2023-04-23T06:26:35.011Z,2.20
2023-04-23T06:29:09.810Z,2.10
2023-04-23T06:31:43.121Z,1.77
2023-04-23T06:34:09.895Z,2.13
2023-04-23T06:36:36.598Z,2.35
2023-04-23T06:39:03.494Z,1.88
2023-04-23T06:41:30.508Z,1.60
2023-04-23T06:44:08.526Z,1.75
2023-04-23T06:46:39.349Z,2.00
2023-04-23T06:49:06.070Z,1.65
2023-04-23T06:51:32.809Z,1.75
2023-04-23T06:53:59.625Z,2.03
2023-04-23T06:56:27.484Z,1.77
2023-04-23T06:58:54.246Z,2.45
2023-04-23T07:01:22.340Z,2.05
2023-04-23T07:03:51.546Z,1.70
2023-04-23T07:06:18.519Z,1.27
2023-04-23T07:08:45.360Z,1.80
2023-04-23T07:11:12.217Z,2.15
2023-04-23T07:14:00.700Z,1.55
2023-04-23T07:16:29.904Z,1.67
2023-04-23T07:18:56.909Z,1.80
2023-04-23T07:21:23.752Z,1.75
2023-04-23T07:23:50.940Z,1.65
2023-04-23T07:26:17.784Z,1.30
2023-04-23T07:28:46.462Z,1.50
2023-04-23T07:31:13.300Z,1.60
2023-04-23T07:33:41.517Z,1.38
2023-04-23T07:36:08.332Z,1.60
2023-04-23T07:38:34.998Z,1.60
2023-04-23T07:41:02.279Z,1.52
2023-04-23T07:43:29.045Z,2.08
2023-04-23T07:45:55.698Z,1.48
2023-04-23T07:48:22.437Z,1.55
2023-04-23T07:50:51.243Z,1.52
2023-04-23T07:53:18.892Z,2.13
2023-04-23T07:55:45.950Z,2.60
2023-04-23T07:58:12.922Z,1.92
2023-04-23T08:00:39.895Z,2.08
2023-04-23T08:03:06.807Z,2.05
2023-04-23T08:05:33.752Z,2.20
2023-04-23T08:08:00.493Z,2.05
2023-04-23T08:10:27.181Z,2.53
2023-04-23T08:12:53.920Z,2.40
2023-04-23T08:15:21.125Z,1.95
2023-04-23T08:17:48.010Z,2.15
2023-04-23T08:20:15.123Z,2.13
2023-04-23T08:22:42.241Z,2.08
2023-04-23T08:25:09.695Z,2.35
2023-04-23T08:27:37.036Z,1.85
2023-04-23T08:30:04.410Z,1.88
2023-04-23T08:32:31.292Z,2.08
2023-04-23T08:34:58.895Z,1.90
2023-04-23T08:37:30.724Z,1.40
2023-04-23T08:39:58.574Z,1.43
2023-04-23T08:42:37.794Z,1.63
2023-04-23T08:45:05.947Z,1.48
2023-04-23T08:47:33.740Z,1.70
2023-04-23T08:50:01.519Z,1.30
2023-04-23T08:52:36.352Z,1.40
2023-04-23T08:55:37.502Z,1.42
2023-04-23T08:58:06.443Z,1.27
2023-04-23T09:00:36.151Z,1.50
2023-04-23T09:03:03.939Z,1.40
2023-04-23T09:06:10.158Z,1.60
2023-04-23T09:08:38.147Z,1.65
2023-04-23T09:11:05.354Z,1.40
2023-04-23T09:13:33.929Z,1.40
2023-04-23T09:16:00.876Z,1.17
2023-04-23T09:18:27.824Z,2.40
2023-04-23T09:20:54.799Z,1.50
2023-04-23T09:23:23.447Z,1.33
2023-04-23T09:25:50.461Z,1.30
2023-04-23T09:28:17.391Z,1.55
2023-04-23T09:30:45.769Z,1.10
2023-04-23T09:33:12.969Z,1.17
2023-04-23T09:35:42.343Z,1.27
2023-04-23T09:38:10.763Z,1.48
2023-04-23T09:40:39.019Z,1.67
2023-04-23T09:43:07.364Z,1.63
2023-04-23T09:45:35.998Z,1.25
2023-04-23T09:48:03.097Z,1.50
2023-04-23T09:50:35.729Z,1.48
2023-04-23T09:53:05.271Z,1.45
2023-04-23T09:55:42.998Z,1.40
2023-04-23T09:58:15.815Z,1.02
2023-04-23T10:00:45.539Z,1.38
2023-04-23T10:03:15.485Z,1.42
2023-04-23T10:06:01.884Z,1.95
2023-04-23T10:08:41.386Z,1.42
2023-04-23T10:14:12.374Z,1.40
2023-04-23T10:16:49.535Z,1.60
2023-04-23T10:19:21.445Z,1.23
2023-04-23T10:22:18.515Z,1.25
2023-04-23T10:25:46.628Z,1.38
2023-04-23T10:28:28.713Z,1.63
2023-04-23T10:34:13.583Z,1.20
2023-04-23T10:36:42.097Z,1.30
2023-04-23T10:41:48.757Z,1.42
2023-04-23T10:44:50.474Z,1.25
2023-04-23T10:47:24.873Z,1.60
2023-04-23T10:49:53.128Z,1.00
2023-04-23T10:52:25.157Z,1.50
2023-04-23T10:55:03.230Z,1.30
2023-04-23T10:58:11.005Z,1.05
2023-04-23T11:00:47.076Z,1.20
2023-04-23T11:03:47.677Z,1.20
2023-04-23T11:06:20.991Z,1.10
2023-04-23T11:08:55.422Z,1.17
2023-04-23T11:11:41.542Z,0.98
2023-04-23T11:14:15.955Z,0.98
2023-04-23T11:16:43.111Z,0.90
2023-04-23T11:19:12.683Z,0.60
2023-04-23T11:21:59.012Z,1.02
2023-04-23T11:24:30.797Z,0.80
2023-04-23T11:26:59.123Z,1.00
2023-04-23T11:29:27.672Z,0.90
2023-04-23T11:34:26.445Z,1.10
2023-04-23T11:36:54.866Z,0.80
2023-04-23T11:39:24.303Z,0.80
2023-04-23T11:41:52.384Z,0.60
2023-04-23T11:44:23.636Z,0.40
2023-04-23T11:46:51.026Z,0.90
2023-04-23T11:49:19.416Z,0.60
2023-04-23T11:51:46.848Z,0.60
2023-04-23T11:54:14.910Z,0.77
2023-04-23T11:56:42.432Z,0.77
2023-04-23T11:59:12.611Z,0.50
2023-04-23T12:01:42.744Z,0.52
2023-04-23T12:04:20.681Z,0.50
2023-04-23T12:06:49.684Z,0.75
2023-04-23T12:09:29.597Z,0.50
2023-04-23T12:11:58.588Z,0.40
2023-04-23T12:14:31.090Z,0.57
2023-04-23T12:16:59.468Z,0.47
2023-04-23T12:19:29.304Z,0.70
2023-04-23T12:22:01.560Z,0.52
2023-04-23T12:24:30.518Z,0.70
2023-04-23T12:27:00.779Z,0.30
2023-04-23T12:29:30.435Z,0.68
2023-04-23T12:32:01.174Z,1.00
2023-04-23T12:34:28.023Z,0.50
2023-04-23T12:36:58.978Z,0.70
2023-04-23T12:39:30.734Z,0.70
2023-04-23T12:42:00.662Z,0.70
2023-04-23T12:44:27.638Z,0.50
2023-04-23T12:46:57.716Z,0.63
2023-04-23T12:49:27.215Z,0.65
2023-04-23T12:52:01.398Z,0.50
2023-04-23T12:54:31.306Z,0.50
2023-04-23T12:56:59.753Z,0.45
2023-04-23T12:59:26.685Z,0.40
2023-04-23T13:01:53.886Z,0.50
2023-04-23T13:04:21.149Z,0.50
2023-04-23T13:06:48.613Z,0.22
2023-04-23T13:09:16.508Z,0.40
2023-04-23T13:11:43.478Z,0.40
2023-04-23T13:14:10.416Z,0.40
2023-04-23T13:16:37.872Z,0.40
2023-04-23T13:19:05.185Z,0.30
2023-04-23T13:21:31.897Z,0.60
2023-04-23T13:23:58.757Z,0.30
2023-04-23T13:26:25.811Z,0.57
2023-04-23T13:28:52.593Z,0.47
2023-04-23T13:31:19.540Z,0.32
2023-04-23T13:33:46.364Z,0.40
2023-04-23T13:36:13.287Z,0.30
2023-04-23T13:38:40.174Z,0.30
2023-04-23T13:41:07.013Z,0.25
2023-04-23T13:43:33.973Z,0.73
2023-04-23T13:46:01.321Z,0.45
2023-04-23T13:48:36.823Z,0.70
2023-04-23T13:51:05.345Z,0.30
2023-04-23T13:53:37.616Z,0.70
2023-04-23T13:56:04.460Z,0.30
2023-04-23T13:58:31.198Z,0.40
2023-04-23T14:00:57.970Z,0.43
2023-04-23T14:03:24.758Z,0.50
2023-04-23T14:05:51.565Z,0.40
2023-04-23T14:08:18.266Z,0.68
2023-04-23T14:10:45.111Z,0.40
2023-04-23T14:13:11.924Z,0.85
2023-04-23T14:15:38.716Z,0.47
2023-04-23T14:18:05.913Z,0.40
2023-04-23T14:20:32.701Z,0.40
2023-04-23T14:23:26.006Z,0.40
2023-04-23T14:25:58.500Z,0.30
2023-04-23T14:28:32.943Z,0.60
2023-04-23T14:31:01.556Z,0.43
2023-04-23T14:33:28.535Z,0.43
2023-04-23T14:35:55.333Z,0.50
2023-04-23T14:38:22.574Z,0.40
2023-04-23T14:40:49.419Z,0.40
2023-04-23T14:43:16.747Z,0.40
2023-04-23T14:45:44.030Z,0.52
2023-04-23T14:48:11.020Z,0.82
2023-04-23T14:50:37.887Z,0.47
2023-04-23T14:53:07.223Z,0.40
2023-04-23T14:55:34.281Z,0.50
2023-04-23T14:58:01.560Z,0.30
2023-04-23T15:00:28.468Z,0.43
2023-04-23T15:02:55.652Z,0.30
2023-04-23T15:05:22.569Z,0.88
2023-04-23T15:07:51.441Z,0.50
2023-04-23T15:10:19.392Z,0.82
2023-04-23T15:13:01.823Z,0.35
2023-04-23T15:15:55.455Z,0.30
2023-04-23T15:18:22.285Z,0.55
2023-04-23T15:20:49.307Z,0.52
2023-04-23T15:23:16.043Z,0.50
2023-04-23T15:25:42.838Z,0.32
2023-04-23T15:28:09.678Z,0.47
2023-04-23T15:30:36.371Z,0.50
2023-04-23T15:33:03.223Z,0.40
2023-04-23T15:35:31.476Z,0.20
2023-04-23T15:37:58.338Z,0.50
2023-04-23T15:40:26.406Z,0.52
2023-04-23T15:42:53.620Z,0.40
2023-04-23T15:45:20.586Z,0.40
2023-04-23T15:47:47.596Z,0.47
2023-04-23T15:50:18.877Z,0.65
2023-04-23T15:52:45.588Z,0.38
2023-04-23T15:55:12.625Z,0.45
2023-04-23T15:57:39.408Z,0.55
2023-04-23T16:00:07.157Z,0.30
2023-04-23T16:02:38.902Z,0.40
2023-04-23T16:05:05.969Z,0.40
2023-04-23T16:07:32.824Z,0.47
2023-04-23T16:09:59.694Z,0.50
2023-04-23T16:12:27.219Z,0.40
2023-04-23T16:14:54.384Z,0.50
2023-04-23T16:17:21.085Z,0.30
2023-04-23T16:19:48.352Z,0.43
2023-04-23T16:22:16.287Z,0.40
2023-04-23T16:24:43.136Z,0.40
2023-04-23T16:27:11.130Z,2.17
2023-04-23T16:29:38.724Z,0.93
2023-04-23T16:32:07.123Z,0.98
2023-04-23T16:34:34.165Z,1.35
2023-04-23T16:37:01.049Z,0.57
2023-04-23T16:39:27.930Z,0.40
2023-04-23T16:41:57.039Z,0.38
2023-04-23T16:44:23.974Z,0.38
2023-04-23T16:46:51.908Z,0.50
2023-04-23T16:49:44.726Z,0.43
2023-04-23T16:52:11.687Z,0.70
2023-04-23T16:54:38.481Z,0.45
2023-04-23T16:57:07.420Z,0.40
2023-04-23T16:59:34.330Z,0.60
2023-04-23T17:02:03.505Z,0.38
2023-04-23T17:04:33.517Z,0.50
2023-04-23T17:07:00.403Z,0.40
2023-04-23T17:09:27.348Z,0.40
2023-04-23T17:11:54.143Z,0.45
2023-04-23T17:14:20.893Z,0.52
2023-04-23T17:16:47.909Z,0.70
2023-04-23T17:19:14.719Z,0.43
2023-04-23T17:21:41.712Z,0.63
2023-04-23T17:24:10.888Z,0.60
2023-04-23T17:26:39.671Z,0.43
2023-04-23T17:29:07.011Z,0.75
2023-04-23T17:31:35.414Z,0.63
2023-04-23T17:34:03.668Z,0.40
2023-04-23T17:36:32.610Z,0.93
2023-04-23T17:39:00.462Z,0.68
2023-04-23T17:41:29.811Z,0.50
2023-04-23T17:43:56.559Z,0.60
2023-04-23T17:46:23.480Z,0.70
2023-04-23T17:48:50.380Z,0.60
2023-04-23T17:51:17.891Z,0.75
2023-04-23T17:53:48.747Z,0.45
2023-04-23T17:56:16.470Z,0.30
2023-04-23T17:58:43.776Z,0.85
2023-04-23T18:01:11.139Z,0.50
2023-04-23T18:03:38.409Z,0.50
2023-04-23T18:06:05.965Z,0.60
2023-04-23T18:08:32.740Z,0.55
2023-04-23T18:11:00.029Z,0.70
2023-04-23T18:13:27.048Z,0.60
2023-04-23T18:15:53.791Z,0.40
2023-04-23T18:18:22.088Z,0.90
2023-04-23T18:20:49.298Z,0.68
2023-04-23T18:23:16.486Z,0.60
2023-04-23T18:25:43.205Z,1.40
2023-04-23T18:28:10.028Z,0.52
2023-04-23T18:30:38.086Z,0.80
2023-04-23T18:37:03.408Z,1.75
2023-04-23T18:39:32.465Z,0.90
2023-04-23T18:41:59.550Z,0.47
2023-04-23T18:44:27.166Z,0.50
2023-04-23T18:46:53.982Z,0.60
2023-04-23T18:49:29.992Z,0.52
2023-04-23T18:51:56.989Z,0.70
2023-04-23T18:54:25.592Z,0.98
2023-04-23T18:56:53.499Z,0.63
2023-04-23T18:59:20.345Z,0.95
2023-04-23T19:01:48.236Z,0.55
2023-04-23T19:04:15.390Z,0.52
2023-04-23T19:06:42.785Z,0.50
2023-04-23T19:09:10.979Z,1.27
2023-04-23T19:11:38.300Z,0.45
2023-04-23T19:14:05.348Z,0.88
2023-04-23T19:16:32.340Z,0.47
2023-04-23T19:18:59.370Z,0.40
2023-04-23T19:21:28.741Z,1.08
2023-04-23T19:23:59.573Z,0.75
2023-04-23T19:26:29.686Z,0.57
2023-04-23T19:28:56.581Z,0.65
2023-04-23T19:31:23.487Z,0.50
2023-04-23T19:33:50.770Z,0.88
2023-04-23T19:36:17.672Z,0.68
2023-04-23T19:38:44.631Z,0.60
2023-04-23T19:41:11.671Z,0.82
2023-04-23T19:43:38.978Z,0.63
2023-04-23T19:47:09.210Z,0.60
2023-04-23T19:49:36.116Z,0.50
2023-04-23T19:52:03.881Z,0.57
2023-04-23T19:54:30.715Z,0.82
2023-04-23T19:56:57.547Z,0.52
2023-04-23T19:59:24.392Z,0.50
2023-04-23T20:01:51.621Z,0.65
2023-04-23T20:04:20.911Z,0.70
2023-04-23T20:06:47.915Z,0.70
2023-04-23T20:09:21.900Z,0.70
2023-04-23T20:14:15.638Z,0.50
2023-04-23T20:16:42.533Z,0.60
2023-04-23T20:19:20.730Z,1.05
2023-04-23T20:21:47.571Z,0.60
2023-04-23T20:24:14.643Z,0.65
2023-04-23T20:26:42.229Z,0.47
2023-04-23T20:29:09.397Z,0.70
2023-04-23T20:31:36.654Z,0.52
2023-04-23T20:34:03.927Z,0.57
2023-04-23T20:36:39.272Z,0.90
2023-04-23T20:39:06.038Z,0.70
2023-04-23T20:41:36.760Z,0.80
2023-04-23T20:44:09.235Z,0.70
2023-04-23T20:46:36.986Z,0.55
2023-04-23T20:49:04.548Z,0.93
2023-04-23T20:51:34.684Z,0.70
2023-04-23T20:54:02.284Z,0.55
2023-04-23T20:56:29.928Z,0.50
2023-04-23T20:59:00.096Z,0.70
2023-04-23T21:01:27.182Z,0.55
2023-04-23T21:03:54.424Z,1.10
2023-04-23T21:06:22.224Z,0.70
2023-04-23T21:08:49.354Z,0.90
2023-04-23T21:11:18.371Z,0.68
2023-04-23T21:13:46.686Z,0.80
2023-04-23T21:16:13.804Z,0.88
2023-04-23T21:18:42.452Z,0.88
2023-04-23T21:21:09.206Z,0.80
2023-04-23T21:23:36.261Z,0.55
2023-04-23T21:26:03.474Z,0.90
2023-04-23T21:28:31.788Z,0.90
2023-04-23T21:31:06.676Z,0.85
2023-04-23T21:33:33.461Z,0.85
2023-04-23T21:36:00.239Z,0.77
2023-04-23T21:38:27.001Z,0.90
2023-04-23T21:40:53.982Z,0.80
2023-04-23T21:43:20.788Z,1.02
2023-04-23T21:45:47.494Z,0.85
2023-04-23T21:48:15.139Z,0.90
2023-04-23T21:50:42.503Z,0.60
2023-04-23T21:53:09.863Z,0.88
2023-04-23T21:55:36.727Z,0.70
2023-04-23T21:58:16.358Z,0.90
2023-04-23T22:00:45.086Z,0.73
2023-04-23T22:03:13.375Z,1.15
2023-04-23T22:05:45.741Z,1.02
2023-04-23T22:08:12.837Z,0.82
2023-04-23T22:10:43.252Z,0.73
2023-04-23T22:13:11.339Z,0.90
2023-04-23T22:15:38.491Z,0.93
2023-04-23T22:18:05.629Z,0.88
2023-04-23T22:20:32.643Z,0.70
2023-04-23T22:22:59.467Z,0.70
2023-04-23T22:25:26.233Z,0.82
2023-04-23T22:27:52.943Z,0.73
2023-04-23T22:30:19.767Z,0.77
2023-04-23T22:32:46.636Z,0.75
2023-04-23T22:35:13.461Z,0.60
2023-04-23T22:37:40.418Z,0.90
2023-04-23T22:40:10.495Z,0.70
2023-04-23T22:42:37.820Z,1.08
2023-04-23T22:45:06.126Z,1.02
2023-04-23T22:47:33.101Z,0.70
2023-04-23T22:49:59.889Z,0.60
2023-04-23T22:52:27.199Z,0.90
2023-04-23T22:54:55.120Z,0.65
2023-04-23T22:57:22.004Z,1.13
2023-04-23T22:59:49.252Z,0.55
2023-04-23T23:02:16.666Z,0.90
2023-04-23T23:04:43.509Z,0.60
2023-04-23T23:07:10.653Z,1.00
2023-04-23T23:09:37.434Z,0.85
2023-04-23T23:12:04.876Z,0.60
2023-04-23T23:14:31.992Z,1.25
2023-04-23T23:16:59.079Z,0.90
2023-04-23T23:19:27.236Z,0.82
2023-04-23T23:21:54.203Z,0.95
2023-04-23T23:24:22.325Z,0.80
2023-04-23T23:26:50.434Z,1.25
2023-04-23T23:29:17.219Z,0.88
2023-04-23T23:31:44.284Z,0.80
2023-04-23T23:34:11.373Z,1.08
2023-04-23T23:37:16.526Z,0.98
2023-04-23T23:39:43.540Z,0.73
2023-04-23T23:42:10.867Z,0.80
2023-04-23T23:44:37.647Z,1.17
2023-04-23T23:47:04.698Z,0.80
2023-04-23T23:49:31.634Z,0.90
2023-04-23T23:51:58.460Z,0.85
2023-04-23T23:54:25.155Z,0.90
2023-04-23T23:56:52.039Z,0.70
2023-04-23T23:59:18.835Z,0.55
